Portada
METAR-TAF:

METAR-TAF

Aeroports :

Bhopal, Índia

latitud: 23-17-15N, longitud: 77-20-15E, altitud: 524 m

Observació

L'informe es va fer fa 2 hores i 3 minuts, a les 19:00 UTC
Vent 4 kt del Nord/Nord-Est
Temperatura 22°C
Humitat 83%
Pressió 1016 hPa
Visibilitat: 6000 m

METAR: VABP 161900Z 03004KT 6000 NSC 22/19 Q1016 NOSIG

Hora: 02:33 (21:03 UTC)

Pronòstic

L'informe es va fer fa 1 hora i 3 minuts, a les 20:00 UTC
Pronòstic vàlid del 16 a les 21 UTC al 17 a les 06 UTC
Vent 4 kt del Est
Visibilitat: 4000 m
calitja

TAF: VABP 162000Z 1621/1706 08004KT 4000 HZ NSC

Observacions i pronòstics meteorològics de més de 4000 aeroports (METAR i TAF).

Les estacions disponibles són els punts grocs i vermells al mapa.

Posi el ratolí al punt desitjat per veure el nom de l'estació.

Feu clic per veure les observacions i els pronòstics meteorològics.

Per canviar el mapa: feu clic els botons verds amb una creu de color negre per apropar; al botó verd amb un guió per allunyar la imatge; o en les fletxes verdes per a mapes adjacents.


METAR-TAF: